Latest Coastal Weather Observations for Devonport Airport

IDT60701

Issued at 8:45 pm EST Saturday 19 April 2014 (issued every 10 minutes, with the page automatically refreshed every 10 minutes)

About coastal observations | Map of coastal stations | Coastal observations for TAS | Marine services | Other Formats
Station Details ID: 091126 Name: DEVONPORT AIRPORT Lat: -41.17 Lon: 146.43 Height: 8.0 m
Data from the previous 72 hours. | See also: Recent months at Devonport Airport
Date/Time
EST
Temp

°C
Wind Pressure Rain
since 9am
mm
Weather Cloud Vis
km
Sea
Height
m
Swell
Dir
 
Speed
knots
Gust
knots
hPa Trend Height
m
Period
s
Dir
19/08:30pm 7.5 W 3 5 1016.1 - 0.0 - - 10 - - - -
19/08:00pm 8.2 W 6 7 1016.0 - 0.0 - - 10 - - - -
19/07:30pm 8.7 W 6 7 1015.9 - 0.0 - - 10 - - - -
19/07:00pm 9.1 W 8 10 1015.7 - 0.0 - - 10 - - - -
19/06:30pm 10.1 W 9 11 1015.6 - 0.0 - - 10 - - - -
19/06:00pm 10.4 W 10 13 1015.4 - 0.0 - - 10 - - - -
19/05:30pm 12.1 W 11 14 1015.4 - 0.0 - Partly cloudy 10 - - - -
19/05:00pm 13.4 W 14 17 1015.3 - 0.0 - Cloudy 10 - - - -
19/04:30pm 13.9 W 14 18 1015.3 - 0.0 - Cloudy 10 - - - -
19/04:00pm 14.3 W 14 17 1015.3 - 0.0 - Cloudy 10 - - - -
19/03:30pm 14.6 W 13 18 1015.3 - 0.0 - Cloudy 10 - - - -
19/03:00pm 14.7 W 12 16 1015.3 - 0.0 - Mostly cloudy 10 - - - -
19/02:30pm 14.6 W 12 15 1015.2 - 0.0 - Cloudy 10 - - - -
19/02:00pm 14.4 NW 8 11 1015.4 - 0.0 - Partly cloudy 10 - - - -
19/01:30pm 14.4 NW 10 12 1015.7 - 0.0 - Cloudy 10 - - - -
19/01:00pm 14.2 NNW 10 13 1015.9 - 0.0 - Cloudy 10 - - - -
19/12:30pm 14.0 NW 9 13 1016.3 - 0.0 - Partly cloudy 10 - - - -
19/12:00pm 14.2 WNW 11 15 1016.5 - 0.0 - Mostly cloudy 10 - - - -
19/11:30am 13.9 NW 11 14 1016.9 - 0.0 - Partly cloudy 10 - - - -
19/11:00am 14.2 WSW 9 13 1017.2 - 0.0 - - 10 - - - -
19/10:30am 13.6 WSW 9 13 1017.1 - 0.0 - - 10 - - - -
19/10:00am 13.2 WSW 10 13 1017.1 - 0.0 - - 10 - - - -
19/09:30am 12.6 W 10 13 1017.1 - 0.0 - - 10 - - - -
19/09:00am 12.2 W 9 11 1017.1 - 4.2 - - 10 - - - -
19/08:30am 11.3 WSW 6 10 1017.1 - 4.2 - - 10 - - - -
19/08:00am 10.1 W 6 8 1017.0 - 4.2 - - 10 - - - -
19/07:30am 8.3 SW 4 6 1016.9 - 4.2 - - 10 - - - -
19/07:00am 6.5 WSW 9 11 1016.4 - 4.2 - - 10 - - - -
19/06:30am 6.6 W 7 9 1016.2 - 4.2 - - 10 - - - -
19/06:00am 6.2 W 8 9 1016.2 - 4.2 - - 10 - - - -
19/05:30am 6.7 WSW 7 9 1016.0 - 4.2 - - 10 - - - -
19/05:00am 7.5 WSW 7 9 1015.9 - 4.2 - - 10 - - - -
19/04:30am 7.2 WSW 8 10 1015.7 - 4.2 - - 10 - - - -
19/04:00am 6.6 WSW 8 9 1015.7 - 4.2 - - 10 - - - -
19/03:30am 7.6 W 10 11 1015.7 - 4.2 - - 10 - - - -
19/03:00am 7.5 WSW 11 12 1015.5 - 4.2 - - 10 - - - -
19/02:30am 8.0 W 9 11 1015.7 - 4.2 - - 10 - - - -
19/02:00am 7.8 W 7 9 1015.9 - 4.2 - - 10 - - - -
19/01:00am 8.8 W 10 11 1015.8 - 4.2 - - 10 - - - -
19/12:30am 9.1 WSW 12 14 1015.5 - 4.2 - - 10 - - - -
 
Date/Time
EST
Temp

°C
Wind Pressure Rain
since 9am
mm
Weather Cloud Vis
km
Sea
Height
m
Swell
Dir
 
Speed
knots
Gust
knots
hPa Trend Height
m
Period
s
Dir
18/11:30pm 9.6 W 13 16 1015.5 - 4.2 - - 10 - - - -
18/11:00pm 9.5 W 12 14 1015.6 - 4.2 - - 10 - - - -
18/10:30pm 10.4 W 12 17 1015.6 - 4.2 - - 10 - - - -
18/10:00pm 10.9 WNW 13 17 1015.5 - 4.2 - - 10 - - - -
18/09:30pm 10.9 W 10 13 1015.4 - 4.2 - - 10 - - - -
18/09:00pm 11.6 WSW 13 22 1014.9 - 4.2 - - 10 - - - -
18/08:30pm 12.0 SW 16 22 1014.1 - 4.2 - - 10 - - - -
18/08:09pm 11.5 WSW 17 27 1013.8 - 4.2 - - 10 - - - -
18/08:00pm 11.5 WSW 15 22 1013.9 - 4.2 - - 10 - - - -
18/07:30pm 11.7 WSW 14 21 1013.6 - 4.2 - - 10 - - - -
18/07:00pm 11.8 SW 11 15 1013.8 - 4.2 - - 10 - - - -
18/06:30pm 10.5 WSW 9 12 1013.4 - 4.2 - - 10 - - - -
18/06:00pm 12.3 W 12 17 1013.0 - 4.2 - - 10 - - - -
18/05:30pm 12.4 WSW 12 16 1012.5 - 4.2 - - 10 - - - -
18/05:00pm 13.5 W 14 17 1012.0 - 4.2 - Partly cloudy 10 - - - -
18/04:30pm 14.6 WSW 13 18 1011.6 - 4.2 - - 10 - - - -
18/04:00pm 14.8 WSW 16 23 1011.3 - 4.2 - Partly cloudy 10 - - - -
18/03:30pm 15.5 WSW 18 23 1010.8 - 4.2 - - 10 - - - -
18/03:07pm 15.8 WSW 18 29 1010.4 - 4.2 - - 10 - - - -
18/03:00pm 16.2 WSW 16 24 1010.4 - 4.2 - Mostly clear 10 - - - -
18/02:30pm 16.4 WSW 17 27 1010.1 - 4.2 - - 10 - - - -
18/02:03pm 16.5 WSW 17 28 1009.8 - 4.2 - - 10 - - - -
18/02:00pm 16.9 WSW 17 22 1009.7 - 4.2 - - 10 - - - -
18/01:30pm 16.7 WSW 16 24 1009.4 - 4.2 - Partly cloudy 10 - - - -
18/01:00pm 15.6 SW 18 22 1009.4 - 4.2 - - 10 - - - -
18/12:30pm 14.8 WSW 15 19 1009.5 - 4.2 - - 10 - - - -
18/12:00pm 13.9 W 12 16 1009.8 - 4.2 - - 10 - - - -
18/11:30am 12.9 SW 8 11 1008.7 - 4.2 - Partly cloudy 10 - - - -
18/11:00am 13.1 S 6 10 1008.9 - 4.2 - Partly cloudy 10 - - - -
18/10:30am 13.0 SSW 10 15 1009.9 - 4.2 - Cloudy 10 - - - -
18/10:04am 13.3 SW 16 26 1010.2 - 4.0 - Cloudy 10 - - - -
18/10:00am 13.4 SW 17 26 1010.3 - 4.0 - Cloudy 10 - - - -
18/09:44am 13.4 WSW 17 28 1010.2 - 3.6 - Partly cloudy 10 - - - -
18/09:41am 13.3 WSW 17 23 1010.2 - 3.4 - Partly cloudy 10 - - - -
18/09:30am 13.1 W 20 31 1009.6 - 3.2 - Partly cloudy 5 - - - -
18/09:23am 12.6 WSW 25 35 1009.6 - 3.2 - Partly cloudy 3 - - - -
18/09:16am 14.8 WNW 16 27 1009.5 - 1.2 - Partly cloudy 5 - - - -
18/09:04am 14.9 WNW 17 23 1009.6 - 0.0 - Partly cloudy 6 - - - -
18/09:00am 15.7 WNW 15 23 1009.7 - 0.0 - Cloudy 10 - - - -
18/08:30am 16.1 W 15 18 1010.1 - 0.0 - Partly cloudy 10 - - - -
18/08:00am 16.1 W 14 18 1010.3 - 0.0 - Partly cloudy 10 - - - -
18/07:30am 15.8 W 15 23 1010.6 - 0.0 - Partly cloudy 10 - - - -
18/07:00am 17.0 NNW 15 19 1010.6 - 0.0 - Partly cloudy 10 - - - -
18/06:30am 16.9 NNW 16 20 1010.7 - 0.0 - Partly cloudy 10 - - - -
18/06:00am 16.7 NNW 14 17 1011.1 - 0.0 - Cloudy 10 - - - -
18/05:30am 16.7 NNW 13 17 1011.4 - 0.0 - Partly cloudy 10 - - - -
18/05:00am 16.4 NNW 13 16 1011.9 - 0.0 - Partly cloudy 10 - - - -
18/04:30am 16.4 NNW 15 19 1012.3 - 0.0 - Partly cloudy 10 - - - -
18/04:28am 16.5 NNW 15 19 1012.4 - 0.0 - Partly cloudy 10 - - - -
18/04:00am 16.4 NNW 14 18 1012.7 - 0.0 - Partly cloudy 10 - - - -
18/03:30am 16.3 NNW 13 16 1013.0 - 0.0 - Partly cloudy 10 - - - -
18/03:24am 16.3 NNW 12 16 1013.1 - 0.0 - Partly cloudy 10 - - - -
18/03:00am 14.6 WSW 5 8 1013.6 - 0.0 - Cloudy 10 - - - -
18/02:58am 14.5 WSW 6 9 1013.7 - 0.0 - Partly cloudy 10 - - - -
18/02:40am 14.6 W 7 15 1014.0 - 0.0 - Partly cloudy 10 - - - -
18/02:30am 16.4 NNW 13 16 1013.9 - 0.0 - Partly cloudy 10 - - - -
18/02:00am 13.0 SSE 4 5 1014.5 - 0.0 - Partly cloudy 10 - - - -
18/01:30am 12.7 SSE 5 6 1015.1 - 0.0 - Partly cloudy 10 - - - -
18/01:00am 12.4 S 6 7 1015.6 - 0.0 - Partly cloudy 10 - - - -
18/12:30am 12.1 SSW 5 6 1015.9 - 0.0 - Partly cloudy 10 - - - -
18/12:08am 12.1 S 6 7 1015.9 - 0.0 - Partly cloudy 10 - - - -
18/12:00am 12.1 S 7 7 1016.0 - 0.0 - Partly cloudy 10 - - - -
 
Date/Time
EST
Temp

°C
Wind Pressure Rain
since 9am
mm
Weather Cloud Vis
km
Sea
Height
m
Swell
Dir
 
Speed
knots
Gust
knots
hPa Trend Height
m
Period
s
Dir
17/11:57pm 12.1 S 7 7 1016.0 - 0.0 - Partly cloudy 10 - - - -
17/11:30pm 12.0 SSE 5 6 1016.2 - 0.0 - Partly cloudy 10 - - - -
17/11:00pm 13.2 S 5 6 1016.9 - 0.0 - Partly cloudy 10 - - - -
17/10:30pm 13.3 E 5 6 1017.2 - 0.0 - Partly cloudy 10 - - - -
17/10:00pm 13.5 ENE 4 5 1017.6 - 0.0 - - 10 - - - -
17/09:30pm 15.3 NNE 5 6 1017.9 - 0.0 - Partly cloudy 10 - - - -
17/09:00pm 16.2 N 7 8 1018.1 - 0.0 - Cloudy 10 - - - -
17/08:30pm 16.4 N 5 6 1018.2 - 0.0 - Partly cloudy 10 - - - -
17/08:00pm 16.2 N 6 7 1018.4 - 0.0 - Partly cloudy 10 - - - -
17/07:30pm 16.0 N 6 8 1018.4 - 0.0 - Partly cloudy 10 - - - -
17/07:00pm 15.5 N 8 10 1018.4 - 0.0 - Partly cloudy 10 - - - -
17/06:30pm 15.8 N 8 11 1018.4 - 0.0 - Partly cloudy 10 - - - -
17/06:00pm 16.0 N 9 11 1018.5 - 0.0 - Mostly clear 10 - - - -
17/05:30pm 16.6 N 9 11 1018.5 - 0.0 - Partly cloudy 10 - - - -
17/05:00pm 16.6 N 9 11 1018.5 - 0.0 - Partly cloudy 10 - - - -
17/04:30pm 17.3 N 9 11 1018.6 - 0.0 - - 10 - - - -
17/04:00pm 17.8 NNE 9 12 1018.8 - 0.0 - - 10 - - - -
17/03:30pm 17.9 N 10 12 1019.1 - 0.0 - - 10 - - - -
17/03:00pm 18.7 NNE 9 11 1019.3 - 0.0 - - 10 - - - -
17/02:30pm 18.2 N 9 11 1019.6 - 0.0 - Partly cloudy 10 - - - -
17/02:00pm 18.7 NE 9 11 1019.8 - 0.0 - Cloudy 10 - - - -
17/01:30pm 17.7 NE 9 11 1019.9 - 0.0 - Cloudy 10 - - - -
17/01:00pm 17.6 NE 9 11 1020.2 - 0.0 - Cloudy 10 - - - -
17/12:30pm 18.0 NE 10 13 1020.6 - 0.0 - Partly cloudy 10 - - - -
17/12:00pm 18.0 NE 10 12 1020.9 - 0.0 - - 10 - - - -
17/11:30am 17.8 NE 10 12 1021.1 - 0.0 - - 10 - - - -
17/11:00am 18.0 NE 12 15 1021.2 - 0.0 - - 10 - - - -
17/10:30am 17.6 ENE 11 13 1021.1 - 0.0 - Partly cloudy 10 - - - -
17/10:00am 16.5 ENE 10 11 1021.2 - 0.0 - - 10 - - - -
17/09:30am 17.2 ENE 9 11 1021.3 - 0.0 - - 10 - - - -
17/09:00am 17.0 ESE 5 6 1021.4 - 0.0 - Mostly clear 10 - - - -
17/08:30am 15.6 SE 5 7 1021.6 - 0.0 - - 10 - - - -
17/08:00am 13.9 SSE 6 8 1021.5 - 0.0 - Partly cloudy 10 - - - -
17/07:30am 12.1 S 6 7 1021.3 - 0.0 - Partly cloudy 10 - - - -
17/07:00am 11.3 S 5 6 1020.9 - 0.0 - Partly cloudy 10 - - - -
17/06:30am 11.1 SSW 7 10 1020.8 - 0.0 - Partly cloudy 10 - - - -
17/06:00am 11.6 SSE 7 9 1020.6 - 0.0 - Mostly cloudy 10 - - - -
17/05:30am 11.6 S 7 8 1020.3 - 0.0 - Partly cloudy 10 - - - -
17/05:00am 12.2 S 6 7 1020.4 - 0.0 - Partly cloudy 10 - - - -
17/04:30am 12.3 SSE 9 10 1020.3 - 0.0 - Partly cloudy 10 - - - -
17/04:00am 11.8 SE 4 7 1020.3 - 0.0 - Partly cloudy 10 - - - -
17/03:30am 11.4 S 10 11 1020.2 - 0.0 - Partly cloudy 10 - - - -
17/03:00am 12.0 SSE 9 11 1020.4 - 0.0 - Mostly cloudy 10 - - - -
17/02:30am 11.8 SSE 6 7 1020.7 - 0.0 - Partly cloudy 10 - - - -
17/02:00am 11.7 S 7 9 1020.7 - 0.0 - Partly cloudy 10 - - - -
17/01:30am 11.3 SSE 8 10 1020.4 - 0.0 - Partly cloudy 10 - - - -
17/01:00am 11.4 S 7 9 1020.8 - 0.0 - Partly cloudy 10 - - - -
17/12:30am 11.1 SSE 6 7 1020.6 - 0.0 - - 10 - - - -
17/12:00am 12.1 S 6 8 1020.8 - 0.0 - Mostly cloudy 10 - - - -
 
Date/Time
EST
Temp

°C
Wind Pressure Rain
since 9am
mm
Weather Cloud Vis
km
Sea
Height
m
Swell
Dir
 
Speed
knots
Gust
knots
hPa Trend Height
m
Period
s
Dir
16/11:30pm 13.0 SSE 7 8 1021.2 - 0.0 - Cloudy 10 - - - -
16/11:00pm 12.4 SSE 7 7 1021.4 - 0.0 - Cloudy 10 - - - -
16/10:30pm 11.2 ESE 5 6 1021.4 - 0.0 - - 10 - - - -
16/10:00pm 12.8 E 7 8 1021.1 - 0.0 - Partly cloudy 10 - - - -
16/09:30pm 13.4 E 9 11 1021.0 - 0.0 - - 10 - - - -
16/09:00pm 13.5 E 7 8 1021.1 - 0.0 - Mostly clear 10 - - - -

Other Formats:

Comma delimited format used in spreadsheet applications
http://www.bom.gov.au/fwo/IDT60701/IDT60701.95960.axf

JavaScript Object Notation format (JSON) in row-major order
http://www.bom.gov.au/fwo/IDT60701/IDT60701.95960.json